Terminal Aerodrome Forecast
Issued by NWS

Home | Current Version | Previous Version | Text Only | Print | Product List | Glossary On
Versions: 1 2 3 4 5 6 7 8 9 10 11 12 13
312
FTUS46 KMTR 191134
TAFSJC
TAF
KSJC 191134Z 1912/2012 14010KT P6SM VCSH BKN050 BKN090
     FM192000 31009KT P6SM SCT050 BKN100
     FM200200 14006KT P6SM SCT050 BKN100
     FM200800 14012KT P6SM -RA BKN040 OVC080=

USA.gov is the U.S. government's official web portal to all federal, state and local government web resources and services.